Participated 6 times
Between 1957 and 1962
Manuel Busto, France
Tour de France 2026 starts from Barcelona, Spain in

Stats and Facts from
Tour de France.

2026   2025   2024   2023  2022  2021  2020  2019   2018  2017   2016   2015  2014  2013   2012   2011  2010   2009   2008   2007   2006   2005   2004   2003   2002   2001   2000   1999   1998   1997  1996   1995   1994   1993   1992  1991   1990   1989   1988   1987   1986   1985   1984   1983  1982  1981   1980   1979  1978  1977   1976  1975  1974  1973   1972   1971   1970  1969   1968   1967   1966   1965  1964  1963   1962   1961   1960   1959   1958   1957  1956   1955   1954   1953   1952  1951  1950  1949   1948  1947  1939   1938   1937   1936   1935   1934   1933  1932   1931   1930  1929   1928   1927   1926  1925  1924  1923   1922   1921   1920   1919  1914   1913   1912   1911   1910  1909   1908   1907   1906  1905  1904   1903 

Tourstats
Sitemap

After stage 21 - 2025:
 16451 starters.
  5463 different riders.
  689 teams.
  2398 stages.
  470 restdays.
  466506.50 km.
  5925 abandoned riders.

Click map for 2016 route.
Facts from Tour de France 2016
  |   Stages.  |   Stage winners.  |   Days in jerseys.  |   Teams.  |   All riders.  |   All riders by age.  |   All riders from.  |  

  |   Rookies.  |   Withdrawls.  |   Average speed.  |   GC.  |   Polka  |   Green  |   White  |   Summits. (In tour)  |   Miscellaneous.  |  

Stage 18 on July 21st. 2016
Pick a stage:  1  2  3  4  5  6  7  8  9  10  11  12  13  14  15  16  17  18  19  20  21  

After stage 18:    Chris Froome    Rafał Majka    Peter Sagan    Adam Yates  
  SallanchesMegève | Dist: 17.00km. | Winner: Chris Froome

Podium

Average speed for all riders in stage:  29,584 km./hr.

1
 Chris Froome  Sky Procycling00h 30' 43"=33,207  km/h

2
 Tom Dumoulin  Giant-Alpecin00h 31' 04"+  00:00:21 =32,833  km/h

3
 Fabio Aru  Astana Pro Team00h 31' 16"+  00:00:33 =32,623  km/h

4  Richie Porte  BMC00h 31' 16"+  00:00:33 =32,623  km/h

5  Romain Bardet  AG2R La Mondiale00h 31' 25"+  00:00:42 =32,467  km/h

6  Thomas De Gendt  Lotto Soudal00h 31' 45"+  00:01:02 =32,126  km/h

7  Ion Izagirre  Movistar00h 31' 46"+  00:01:03 =32,109  km/h

8  Joaquin Rodriguez  Katusha00h 31' 48"+  00:01:05 =32,075  km/h

9  Louis Meintjes  Lampre-Merida00h 31' 51"+  00:01:08 =32,025  km/h

10  Nairo Quintana  Movistar00h 31' 53"+  00:01:10 =31,992  km/h

11  Jérôme Coppel  IAM Cycling00h 31' 58"+  00:01:15 =31,908  km/h

12  Alejandro Valverde  Movistar00h 32' 01"+  00:01:18 =31,858  km/h

13  Roman Kreuziger  Tinkoff00h 32' 03"+  00:01:20 =31,825  km/h

14  Stef Clement  IAM Cycling00h 32' 05"+  00:01:22 =31,792  km/h

15  Vincenzo Nibali  Astana Pro Team00h 32' 06"+  00:01:23 =31,776  km/h

16  Adam Yates  ORICA BikeExchange00h 32' 06"+  00:01:23 =31,776  km/h

17  Bauke Mollema  Trek-Segafredo00h 32' 08"+  00:01:25 =31,743  km/h

18  Dan Martin  Etixx-Quick Step00h 32' 11"+  00:01:28 =31,693  km/h

19  Romain Sicard  Direct Energie00h 32' 21"+  00:01:38 =31,530  km/h

20  Sylvain Chavanel  Direct Energie00h 32' 27"+  00:01:44 =31,433  km/h

21  Nelson Oliveira  Movistar00h 32' 29"+  00:01:46 =31,401  km/h

22  Nicolas Edet  Cofidis – Solutions Crédits00h 32' 37"+  00:01:54 =31,272  km/h

23  Geraint Thomas  Sky Procycling00h 32' 52"+  00:02:09 =31,034  km/h

24  Alexey Lutsenko  Astana Pro Team00h 32' 55"+  00:02:12 =30,987  km/h

25  Damiano Caruso  BMC00h 32' 56"+  00:02:13 =30,972  km/h

26  Jan Bárta  Bora-Argon 1800h 32' 58"+  00:02:15 =30,940  km/h

27  Tony Gallopin  Lotto Soudal00h 33' 01"+  00:02:18 =30,893  km/h

28  Julian Alaphilippe  Etixx-Quick Step00h 33' 03"+  00:02:20 =30,862  km/h

29  Sébastien Reichenbach  FDJ00h 33' 04"+  00:02:21 =30,847  km/h

30  Michael Valgren  Tinkoff00h 33' 05"+  00:02:22 =30,831  km/h

31  Alexis Gougeard  AG2R La Mondiale00h 33' 06"+  00:02:23 =30,816  km/h

32  Arnold Jeannesson  Cofidis – Solutions Crédits00h 33' 07"+  00:02:24 =30,800  km/h

33  Mikel Nieve  Sky Procycling00h 33' 08"+  00:02:25 =30,785  km/h

34  Pierre Rolland  Cannondale Pro Cycling00h 33' 10"+  00:02:27 =30,754  km/h

35  Mikel Landa  Sky Procycling00h 33' 11"+  00:02:28 =30,738  km/h

36  Diego Rosa  Astana Pro Team00h 33' 11"+  00:02:28 =30,738  km/h

37  Daryl Impey  ORICA BikeExchange00h 33' 12"+  00:02:29 =30,723  km/h

38  Ilnur Zakarin  Katusha00h 33' 18"+  00:02:35 =30,631  km/h

39  Jakob Fuglsang  Astana Pro Team00h 33' 20"+  00:02:37 =30,600  km/h

40  Daniel Teklehaimanot  Dimension Data00h 33' 21"+  00:02:38 =30,585  km/h

41  Eduardo Sepulveda  Fortuneo-Vital Concept00h 33' 23"+  00:02:40 =30,554  km/h

42  Emanuel Buchmann  Bora-Argon 1800h 33' 26"+  00:02:43 =30,508  km/h

43  Tanel Kangert  Astana Pro Team00h 33' 27"+  00:02:44 =30,493  km/h

44  Haimar  Zubeldía  Trek-Segafredo00h 33' 27"+  00:02:44 =30,493  km/h

45  Ben Gastauer  AG2R La Mondiale00h 33' 31"+  00:02:48 =30,433  km/h

46  Warren Barguil  Giant-Alpecin00h 33' 32"+  00:02:49 =30,417  km/h

47  Sergio Henao  Sky Procycling00h 33' 33"+  00:02:50 =30,402  km/h

48  Anthony Delaplace  Fortuneo-Vital Concept00h 33' 37"+  00:02:54 =30,342  km/h

49  Simon Geschke  Giant-Alpecin00h 33' 39"+  00:02:56 =30,312  km/h

50  Brice Feillu  Fortuneo-Vital Concept00h 33' 39"+  00:02:56 =30,312  km/h

51  Tom-Jelte Slagter  Cannondale Pro Cycling00h 33' 42"+  00:02:59 =30,267  km/h

52  Alexis Vuillermoz  AG2R La Mondiale00h 33' 45"+  00:03:02 =30,222  km/h

53  Pierre-Luc Périchon  Fortuneo-Vital Concept00h 33' 46"+  00:03:03 =30,207  km/h

54  Ramūnas Navardauskas  Cannondale Pro Cycling00h 33' 46"+  00:03:03 =30,207  km/h

55  Edvald Boasson Hagen  Dimension Data00h 33' 47"+  00:03:04 =30,192  km/h

56  Wout Poels  Sky Procycling00h 33' 50"+  00:03:07 =30,148  km/h

57  Martin Elmiger  IAM Cycling00h 33' 54"+  00:03:11 =30,088  km/h

58  Luis León Sánchez  Astana Pro Team00h 33' 57"+  00:03:14 =30,044  km/h

59  Jérémy Roy  FDJ00h 33' 58"+  00:03:15 =30,029  km/h

60  Reto Hollenstein  IAM Cycling00h 33' 58"+  00:03:15 =30,029  km/h

61  Jan Polanc  Lampre-Merida00h 33' 59"+  00:03:16 =30,015  km/h

62  Georg Preidler  Giant-Alpecin00h 33' 59"+  00:03:16 =30,015  km/h

63  Jarlinson Pantano  IAM Cycling00h 34' 00"+  00:03:17 =30,000  km/h

64  Michael Schär  BMC00h 34' 01"+  00:03:18 =29,985  km/h

65  Michael Albasini  ORICA BikeExchange00h 34' 04"+  00:03:21 =29,941  km/h

66  Christopher Juul Jensen  ORICA BikeExchange00h 34' 04"+  00:03:21 =29,941  km/h

67  Maciej Bodnar  Tinkoff00h 34' 06"+  00:03:23 =29,912  km/h

68  Domenico Pozzovivo  AG2R La Mondiale00h 34' 06"+  00:03:23 =29,912  km/h

69  Steve Morabito  FDJ00h 34' 07"+  00:03:24 =29,897  km/h

70  Paolo Tiralongo  Astana Pro Team00h 34' 10"+  00:03:27 =29,854  km/h

71  Amaël Moinard  BMC00h 34' 11"+  00:03:28 =29,839  km/h

72  Bryan Coquard  Direct Energie00h 34' 11"+  00:03:28 =29,839  km/h

73  Rubén Plaza  ORICA BikeExchange00h 34' 12"+  00:03:29 =29,825  km/h

74  Thomas  Voeckler  Direct Energie00h 34' 12"+  00:03:29 =29,825  km/h

75  Tony Martin  Etixx-Quick Step00h 34' 15"+  00:03:32 =29,781  km/h

76  Wilco Kelderman  Lotto NL-Jumbo00h 34' 15"+  00:03:32 =29,781  km/h

77  Oliver Naesen  IAM Cycling00h 34' 16"+  00:03:33 =29,767  km/h

78  Laurens Ten Dam  Giant-Alpecin00h 34' 17"+  00:03:34 =29,752  km/h

79  Fabrice Jeandesboz  Direct Energie00h 34' 17"+  00:03:34 =29,752  km/h

80  Imanol Erviti  Movistar00h 34' 18"+  00:03:35 =29,738  km/h

81  Cyril Gautier  AG2R La Mondiale00h 34' 18"+  00:03:35 =29,738  km/h

82  Rafał Majka  Tinkoff00h 34' 20"+  00:03:37 =29,709  km/h

83  Paul Martens  Lotto NL-Jumbo00h 34' 21"+  00:03:38 =29,694  km/h

84  Albert Timmer  Giant-Alpecin00h 34' 21"+  00:03:38 =29,694  km/h

85  Luke Durbridge  ORICA BikeExchange00h 34' 22"+  00:03:39 =29,680  km/h

86  Dylan Van Baarle  Cannondale Pro Cycling00h 34' 22"+  00:03:39 =29,680  km/h

87  Arthur Vichot  FDJ00h 34' 24"+  00:03:41 =29,651  km/h

88  Fränk Schleck  Trek-Segafredo00h 34' 24"+  00:03:41 =29,651  km/h

89  Jan Bakelants  AG2R La Mondiale00h 34' 27"+  00:03:44 =29,608  km/h

90  Peter Sagan  Tinkoff00h 34' 28"+  00:03:45 =29,594  km/h

91  Michael Matthews  ORICA BikeExchange00h 34' 29"+  00:03:46 =29,580  km/h

92  Serge Pauwels  Dimension Data00h 34' 31"+  00:03:48 =29,551  km/h

93  Antoine Duchesne  Direct Energie00h 34' 31"+  00:03:48 =29,551  km/h

94  Patrick Konrad  Bora-Argon 1800h 34' 32"+  00:03:49 =29,537  km/h

95  Vegard Breen  Fortuneo-Vital Concept00h 34' 33"+  00:03:50 =29,522  km/h

96  George Bennett  Lotto NL-Jumbo00h 34' 37"+  00:03:54 =29,466  km/h

97  Greg Van Avermaet  BMC00h 34' 39"+  00:03:56 =29,437  km/h

98  Kristijan Ðurasek  Lampre-Merida00h 34' 42"+  00:03:59 =29,395  km/h

99  Paul Voss  Bora-Argon 1800h 34' 42"+  00:03:59 =29,395  km/h

100  Cesare Benedetti  Bora-Argon 1800h 34' 43"+  00:04:00 =29,381  km/h

101  Florian Vachon  Fortuneo-Vital Concept00h 34' 47"+  00:04:04 =29,324  km/h

102  Peter Stetina  Trek-Segafredo00h 34' 49"+  00:04:06 =29,296  km/h

103  Anthony Roux  FDJ00h 34' 50"+  00:04:07 =29,282  km/h

104  Tsgabu Grmay  Lampre-Merida00h 34' 52"+  00:04:09 =29,254  km/h

105  Alberto Losada  Katusha00h 34' 53"+  00:04:10 =29,240  km/h

106  Bert-Jan Lindeman  Lotto NL-Jumbo00h 34' 56"+  00:04:13 =29,198  km/h

107  Brent Bookwalter  BMC00h 34' 57"+  00:04:14 =29,185  km/h

108  Bartosz Huzarski  Bora-Argon 1800h 35' 01"+  00:04:18 =29,129  km/h

109  Jürgen Roelandts  Lotto Soudal00h 35' 01"+  00:04:18 =29,129  km/h

110  Sep Vanmarcke  Lotto NL-Jumbo00h 35' 01"+  00:04:18 =29,129  km/h

111  Jérôme Cousin  Cofidis – Solutions Crédits00h 35' 02"+  00:04:19 =29,115  km/h

112  Timo Roosen  Lotto NL-Jumbo00h 35' 04"+  00:04:21 =29,087  km/h

113  Winner Anacona  Movistar00h 35' 05"+  00:04:22 =29,074  km/h

114  Adam Hansen  Lotto Soudal00h 35' 06"+  00:04:23 =29,060  km/h

115  Marcus Burghardt  BMC00h 35' 13"+  00:04:30 =28,964  km/h

116  Samuel Dumoulin  AG2R La Mondiale00h 35' 14"+  00:04:31 =28,950  km/h

117  Oscar Gatto  Tinkoff00h 35' 14"+  00:04:31 =28,950  km/h

118  Marcel Kittel  Etixx-Quick Step00h 35' 14"+  00:04:31 =28,950  km/h

119  Lawson Craddock  Cannondale Pro Cycling00h 35' 15"+  00:04:32 =28,936  km/h

120  Geoffrey Soupe  Cofidis – Solutions Crédits00h 35' 16"+  00:04:33 =28,922  km/h

121  Stephen Cummings  Dimension Data00h 35' 16"+  00:04:33 =28,922  km/h

122  Ángel Vicioso  Katusha00h 35' 17"+  00:04:34 =28,909  km/h

123  Leigh Howard  IAM Cycling00h 35' 20"+  00:04:37 =28,868  km/h

124  Alexander Kristoff  Katusha00h 35' 25"+  00:04:42 =28,800  km/h

125  Petr Vakoč  Etixx-Quick Step00h 35' 28"+  00:04:45 =28,759  km/h

126  Yohann Gène  Direct Energie00h 35' 28"+  00:04:45 =28,759  km/h

127  Luke Rowe  Sky Procycling00h 35' 28"+  00:04:45 =28,759  km/h

128  Adrien Petit  Direct Energie00h 35' 28"+  00:04:45 =28,759  km/h

129  Jasper Stuyven  Trek-Segafredo00h 35' 30"+  00:04:47 =28,732  km/h

130  Christophe Laporte  Cofidis – Solutions Crédits00h 35' 31"+  00:04:48 =28,719  km/h

131  Sondre Holst Enger  IAM Cycling00h 35' 32"+  00:04:49 =28,705  km/h

132  Tejay Van Garderen  BMC00h 35' 34"+  00:04:51 =28,679  km/h

133  William  Bonnet  FDJ00h 35' 36"+  00:04:53 =28,652  km/h

134  Iljo Keisse  Etixx-Quick Step00h 35' 37"+  00:04:54 =28,638  km/h

135  Maximiliano Richeze  Etixx-Quick Step00h 35' 39"+  00:04:56 =28,612  km/h

136  Rui Costa  Lampre-Merida00h 35' 40"+  00:04:57 =28,598  km/h

137  Mathew Hayman  ORICA BikeExchange00h 35' 41"+  00:04:58 =28,585  km/h

138  Cyril Lemoine  Cofidis – Solutions Crédits00h 35' 41"+  00:04:58 =28,585  km/h

139  Luka Pibernik  Lampre-Merida00h 35' 43"+  00:05:00 =28,558  km/h

140  Luis Angel Mate  Cofidis – Solutions Crédits00h 35' 43"+  00:05:00 =28,558  km/h

141  Yukiya  Arashiro  Lampre-Merida00h 35' 44"+  00:05:01 =28,545  km/h

142  Daniel Moreno  Movistar00h 35' 47"+  00:05:04 =28,505  km/h

143  Vasil Kiryienka  Sky Procycling00h 35' 51"+  00:05:08 =28,452  km/h

144  Robert Kišerlovski  Tinkoff00h 35' 54"+  00:05:11 =28,412  km/h

145  Fabio Sabatini  Etixx-Quick Step00h 35' 56"+  00:05:13 =28,386  km/h

146  Matteo Tosatto  Tinkoff00h 35' 57"+  00:05:14 =28,373  km/h

147  Robert Wagner  Lotto NL-Jumbo00h 35' 57"+  00:05:14 =28,373  km/h

148  Gregory Rast  Trek-Segafredo00h 36' 03"+  00:05:20 =28,294  km/h

149  Chris Anker Sørensen  Fortuneo-Vital Concept00h 36' 03"+  00:05:20 =28,294  km/h

150  John Degenkolb  Giant-Alpecin00h 36' 05"+  00:05:22 =28,268  km/h

151  Andriy Grivko  Astana Pro Team00h 36' 06"+  00:05:23 =28,255  km/h

152  Reinardt Janse Van Rensburg  Dimension Data00h 36' 06"+  00:05:23 =28,255  km/h

153  Kristjan Koren  Cannondale Pro Cycling00h 36' 06"+  00:05:23 =28,255  km/h

154  Gregory Henderson  Lotto Soudal00h 36' 06"+  00:05:23 =28,255  km/h

155  Natnael Berhane  Dimension Data00h 36' 11"+  00:05:28 =28,190  km/h

156  André Greipel  Lotto Soudal00h 36' 12"+  00:05:29 =28,177  km/h

157  Roy Curvers  Giant-Alpecin00h 36' 13"+  00:05:30 =28,164  km/h

158  Mikaël Cherel  AG2R La Mondiale00h 36' 13"+  00:05:30 =28,164  km/h

159  Markel Irizar  Trek-Segafredo00h 36' 14"+  00:05:31 =28,151  km/h

160  Julien Vermote  Etixx-Quick Step00h 36' 18"+  00:05:35 =28,099  km/h

161  Ian Stannard  Sky Procycling00h 36' 19"+  00:05:36 =28,086  km/h

162  Andreas Schillinger  Bora-Argon 1800h 36' 24"+  00:05:41 =28,022  km/h

163  Alex Howes  Cannondale Pro Cycling00h 36' 25"+  00:05:42 =28,009  km/h

164  Ramon Sinkeldam  Giant-Alpecin00h 36' 27"+  00:05:44 =27,984  km/h

165  Jacopo Guarnieri  Katusha00h 36' 30"+  00:05:47 =27,945  km/h

166  Dylan Groenewegen  Lotto NL-Jumbo00h 36' 32"+  00:05:49 =27,920  km/h

167  Maarten Wynants  Lotto NL-Jumbo00h 36' 33"+  00:05:50 =27,907  km/h

168  Matteo Bono  Lampre-Merida00h 36' 33"+  00:05:50 =27,907  km/h

169  Marcel Sieberg  Lotto Soudal00h 36' 35"+  00:05:52 =27,882  km/h

170  Lars Bak  Lotto Soudal00h 36' 37"+  00:05:54 =27,856  km/h

171  Sam Bennett  Bora-Argon 1800h 36' 47"+  00:06:04 =27,730  km/h

172  Davide Cimolai  Lampre-Merida00h 36' 59"+  00:06:16 =27,580  km/h

173  Marco Haller  Katusha00h 37' 02"+  00:06:19 =27,543  km/h

174  Daniel McLay  Fortuneo-Vital Concept00h 37' 22"+  00:06:39 =27,297  km/h

175  Daniel Navarro  Cofidis – Solutions Crédits00h 37' 27"+  00:06:44 =27,236  km/h

176  Armindo Fonseca  Fortuneo-Vital Concept00h 37' 46"+  00:07:03 =27,008  km/h

177  Bernhard Eisel  Dimension Data00h 38' 05"+  00:07:22 =26,783  km/h


Withdrawls: 2
 RiderTeamReason
62   Fabian Cancellara Trek-SegafredoDid not start
132   Shane Archbold Bora-Argon 18Did not start
Todays birthdays.

1888 • Giuseppe Contesini
1911 • Edmond Pages
1935 • Eddy Pauwels
1940 • Julien Haelterman
1958 • Luc Colijn
1962 • Jean-François Bernard
1984 • Yann Huguet
1993 • Owain Doull

 

Optimized for Chrome - Edge
and Opera browsers.